createdAt,value
2019-04-26T00:05:34.887Z,97.40
2019-04-26T00:08:05.353Z,97.50
2019-04-26T00:11:11.871Z,97.70
2019-04-26T00:39:11.842Z,98.80
2019-04-26T00:41:57.388Z,99.10
2019-04-26T00:44:27.639Z,99.30
2019-04-26T00:47:01.160Z,99.30
2019-04-26T00:49:44.961Z,99.50
2019-04-26T00:57:42.778Z,99.80
2019-04-26T01:08:32.309Z,99.90
2019-04-26T01:11:16.315Z,99.90
2019-04-26T01:14:16.573Z,99.90
2019-04-26T01:16:35.997Z,99.90
2019-04-26T01:28:23.414Z,99.90
2019-04-26T02:10:52.742Z,99.90
2019-04-26T02:13:27.024Z,99.90
2019-04-26T02:30:28.742Z,99.90
2019-04-26T02:33:01.859Z,99.90
2019-04-26T02:35:52.465Z,99.90
2019-04-26T02:38:35.113Z,99.90
2019-04-26T02:41:09.241Z,99.90
2019-04-26T02:43:41.676Z,99.90
2019-04-26T02:46:30.840Z,99.90
2019-04-26T02:49:43.295Z,99.90
2019-04-26T02:58:14.578Z,99.90
2019-04-26T03:00:46.549Z,99.90
2019-04-26T03:09:39.239Z,99.90
2019-04-26T03:12:16.683Z,99.90
2019-04-26T03:15:12.708Z,99.90
2019-04-26T03:17:44.112Z,99.90
2019-04-26T03:20:18.217Z,99.90
2019-04-26T03:23:41.520Z,99.90
2019-04-26T03:26:13.803Z,99.90
2019-04-26T03:29:16.122Z,99.90
2019-04-26T03:32:48.721Z,99.90
2019-04-26T03:35:26.151Z,99.90
2019-04-26T03:38:17.903Z,99.90
2019-04-26T03:41:22.056Z,99.90
2019-04-26T03:44:21.620Z,99.90
2019-04-26T03:47:02.526Z,99.90
2019-04-26T03:49:46.450Z,99.90
2019-04-26T03:52:47.710Z,99.90
2019-04-26T03:55:56.951Z,99.90
2019-04-26T03:58:41.911Z,99.90
2019-04-26T04:01:14.550Z,99.90
2019-04-26T04:03:57.477Z,99.90
2019-04-26T04:06:52.586Z,99.90
2019-04-26T04:09:10.140Z,99.90
2019-04-26T04:12:10.108Z,99.90
2019-04-26T04:14:42.847Z,99.90
2019-04-26T04:17:50.407Z,99.90
2019-04-26T04:21:09.877Z,99.90
2019-04-26T04:24:11.318Z,99.90
2019-04-26T04:26:57.953Z,99.90
2019-04-26T04:29:48.572Z,99.90
2019-04-26T04:32:23.975Z,99.90
2019-04-26T04:34:56.381Z,99.90
2019-04-26T04:37:31.567Z,99.90
2019-04-26T04:40:28.699Z,99.90
2019-04-26T04:43:24.613Z,99.90
2019-04-26T04:46:49.620Z,99.90
2019-04-26T04:49:35.065Z,99.90
2019-04-26T04:53:01.414Z,99.90
2019-04-26T04:56:14.770Z,99.90
2019-04-26T05:03:09.169Z,99.90
2019-04-26T05:06:15.585Z,99.90
2019-04-26T05:09:00.293Z,99.90
2019-04-26T05:11:37.977Z,99.90
2019-04-26T05:14:20.019Z,99.50
2019-04-26T05:17:10.693Z,99.40
2019-04-26T05:20:20.676Z,99.40
2019-04-26T05:26:39.354Z,99.20
2019-04-26T05:30:05.198Z,98.50
2019-04-26T05:33:19.504Z,98.30
2019-04-26T05:47:32.032Z,97.60
2019-04-26T05:50:38.945Z,97.40
2019-04-26T05:56:54.279Z,96.80
2019-04-26T05:59:34.310Z,96.40
2019-04-26T06:03:05.312Z,95.90
2019-04-26T06:06:19.519Z,95.90
2019-04-26T06:09:34.069Z,95.50
2019-04-26T06:12:31.967Z,94.60
2019-04-26T06:15:25.789Z,94.40
2019-04-26T06:18:46.582Z,94.70
2019-04-26T06:21:44.141Z,93.40
2019-04-26T06:24:39.462Z,92.30
2019-04-26T06:27:41.428Z,92.20
2019-04-26T06:30:46.484Z,91.30
2019-04-26T06:33:43.569Z,90.60
2019-04-26T06:36:24.111Z,90.70
2019-04-26T06:39:32.896Z,90.30
2019-04-26T06:42:45.545Z,89.40
2019-04-26T06:45:51.415Z,88.50
2019-04-26T06:48:42.935Z,85.90
2019-04-26T06:51:24.814Z,85.50
2019-04-26T06:54:10.442Z,84.10
2019-04-26T06:57:10.668Z,83.90
2019-04-26T06:59:52.771Z,82.90
2019-04-26T07:02:37.565Z,82.00
2019-04-26T07:05:22.329Z,78.70
2019-04-26T07:08:25.115Z,77.40
2019-04-26T07:11:59.354Z,75.00
2019-04-26T07:15:27.728Z,74.10
2019-04-26T07:18:10.727Z,73.10
2019-04-26T07:20:54.287Z,72.40
2019-04-26T07:24:13.331Z,72.20
2019-04-26T07:27:09.017Z,67.40
2019-04-26T07:30:15.149Z,68.10
2019-04-26T07:33:27.429Z,65.60
2019-04-26T07:36:20.001Z,64.60
2019-04-26T07:39:20.719Z,63.50
2019-04-26T07:42:30.685Z,63.20
2019-04-26T07:45:57.330Z,62.20
2019-04-26T07:48:53.677Z,61.30
2019-04-26T07:52:15.179Z,59.90
2019-04-26T07:55:26.946Z,60.30
2019-04-26T07:58:42.402Z,60.00
2019-04-26T08:01:37.253Z,60.20
2019-04-26T08:04:11.537Z,58.00
2019-04-26T08:10:50.067Z,58.10
2019-04-26T08:18:13.065Z,57.30
2019-04-26T08:21:13.862Z,55.90
2019-04-26T08:24:21.577Z,55.70
2019-04-26T08:27:25.292Z,55.30
2019-04-26T08:30:51.289Z,54.30
2019-04-26T08:33:25.180Z,52.50
2019-04-26T08:35:57.413Z,52.00
2019-04-26T08:38:30.687Z,52.10
2019-04-26T08:41:20.976Z,53.20
2019-04-26T08:43:56.089Z,52.80
2019-04-26T08:46:44.480Z,51.80
2019-04-26T08:49:38.759Z,51.60
2019-04-26T08:52:38.282Z,49.70
2019-04-26T08:55:12.646Z,50.30
2019-04-26T08:57:45.657Z,49.70
2019-04-26T09:00:51.300Z,49.40
2019-04-26T09:03:53.333Z,50.20
2019-04-26T09:06:47.845Z,49.80
2019-04-26T09:09:28.664Z,48.70
2019-04-26T09:12:39.434Z,49.00
2019-04-26T09:15:30.230Z,48.40
2019-04-26T09:18:09.350Z,48.20
2019-04-26T09:20:42.921Z,48.60
2019-04-26T09:23:53.524Z,47.80
2019-04-26T09:26:48.322Z,47.10
2019-04-26T09:29:36.222Z,46.80
2019-04-26T09:32:20.368Z,47.70
2019-04-26T09:34:51.712Z,47.60
2019-04-26T09:37:23.878Z,47.10
2019-04-26T09:40:09.573Z,46.30
2019-04-26T09:42:54.011Z,45.90
2019-04-26T09:45:50.297Z,45.80
2019-04-26T09:48:29.026Z,46.50
2019-04-26T09:51:01.775Z,46.10
2019-04-26T09:53:43.328Z,44.90
2019-04-26T09:56:39.647Z,44.30
2019-04-26T09:59:12.181Z,44.10
2019-04-26T10:02:08.805Z,44.60
2019-04-26T10:07:58.359Z,44.50
2019-04-26T10:10:58.791Z,44.60
2019-04-26T10:13:57.048Z,45.30
2019-04-26T10:17:06.261Z,42.50
2019-04-26T10:19:44.504Z,43.50
2019-04-26T10:22:15.923Z,43.90
2019-04-26T10:24:51.516Z,42.90
2019-04-26T10:36:26.270Z,40.60
2019-04-26T10:42:41.716Z,39.40
2019-04-26T10:46:24.472Z,37.80
2019-04-26T10:48:45.480Z,38.40
2019-04-26T10:51:16.918Z,38.30
2019-04-26T10:54:09.490Z,38.10
2019-04-26T10:56:55.246Z,37.50
2019-04-26T11:00:01.595Z,36.40
2019-04-26T11:02:42.603Z,34.80
2019-04-26T11:05:20.140Z,35.50
2019-04-26T11:08:15.550Z,35.50
2019-04-26T11:11:03.308Z,36.70
2019-04-26T11:13:24.939Z,36.80
2019-04-26T11:16:07.084Z,37.20
2019-04-26T11:18:37.752Z,37.70
2019-04-26T11:21:07.495Z,37.50
2019-04-26T11:23:45.511Z,37.70
2019-04-26T11:26:21.869Z,38.50
2019-04-26T11:28:58.628Z,39.30
2019-04-26T11:31:36.007Z,37.70
2019-04-26T11:34:13.235Z,37.90
2019-04-26T11:37:17.528Z,37.80
2019-04-26T11:40:10.323Z,37.30
2019-04-26T11:42:37.797Z,37.90
2019-04-26T11:46:05.448Z,38.00
2019-04-26T11:51:27.453Z,36.70
2019-04-26T11:53:52.975Z,37.90
2019-04-26T11:56:16.351Z,38.60
2019-04-26T11:59:00.864Z,38.20
2019-04-26T12:01:41.991Z,37.20
2019-04-26T12:04:53.737Z,37.00
2019-04-26T12:08:46.524Z,35.50
2019-04-26T12:14:03.778Z,34.70
2019-04-26T12:16:27.941Z,34.20
2019-04-26T12:18:59.372Z,34.10
2019-04-26T12:21:35.334Z,34.40
2019-04-26T12:24:07.783Z,34.40
2019-04-26T12:26:57.566Z,34.50
2019-04-26T12:29:28.842Z,33.60
2019-04-26T12:32:01.575Z,34.50
2019-04-26T12:34:40.711Z,34.00
2019-04-26T12:37:19.817Z,34.20
2019-04-26T12:39:56.283Z,34.60
2019-04-26T12:45:21.771Z,33.80
2019-04-26T12:48:12.408Z,34.60
2019-04-26T12:50:42.483Z,35.30
2019-04-26T12:53:22.282Z,34.80
2019-04-26T12:56:00.431Z,35.50
2019-04-26T12:58:36.187Z,34.60
2019-04-26T13:01:12.024Z,34.70
2019-04-26T13:03:51.408Z,34.60
2019-04-26T13:06:31.939Z,35.70
2019-04-26T13:12:51.071Z,36.30
2019-04-26T13:16:16.639Z,36.80
2019-04-26T13:18:49.921Z,36.30
2019-04-26T13:21:26.563Z,36.30
2019-04-26T13:24:00.231Z,36.30
2019-04-26T13:26:34.832Z,36.60
2019-04-26T13:29:10.197Z,36.30
2019-04-26T13:31:45.221Z,36.80
2019-04-26T13:34:15.031Z,37.20
2019-04-26T13:36:44.705Z,38.40
2019-04-26T13:39:24.911Z,38.30
2019-04-26T13:42:24.611Z,38.40
2019-04-26T13:48:46.312Z,37.40
2019-04-26T13:51:18.152Z,37.90
2019-04-26T13:53:57.336Z,37.00
2019-04-26T13:56:45.325Z,35.80
2019-04-26T13:59:20.742Z,36.90
2019-04-26T14:01:50.330Z,37.20
2019-04-26T14:04:24.670Z,37.30
2019-04-26T14:07:03.601Z,37.90
2019-04-26T14:09:36.084Z,38.20
2019-04-26T14:12:18.219Z,38.60
2019-04-26T14:14:41.972Z,38.50
2019-04-26T14:17:19.138Z,38.60
2019-04-26T14:19:55.755Z,39.40
2019-04-26T14:22:29.870Z,39.60
2019-04-26T14:25:22.197Z,39.90
2019-04-26T14:28:06.507Z,39.80
2019-04-26T14:30:58.779Z,39.90
2019-04-26T14:34:01.237Z,39.70
2019-04-26T14:36:26.692Z,39.30
2019-04-26T14:39:06.065Z,39.40
2019-04-26T14:42:01.026Z,39.10
2019-04-26T14:45:07.368Z,38.10
2019-04-26T14:47:51.473Z,38.20
2019-04-26T14:50:33.683Z,39.10
2019-04-26T14:53:13.009Z,39.40
2019-04-26T14:58:48.114Z,39.50
2019-04-26T15:01:50.152Z,39.80
2019-04-26T15:04:43.212Z,39.20
2019-04-26T15:07:17.682Z,40.20
2019-04-26T15:10:24.342Z,40.10
2019-04-26T15:13:14.999Z,40.70
2019-04-26T15:15:42.669Z,41.30
2019-04-26T15:18:22.571Z,41.30
2019-04-26T15:21:05.136Z,42.10
2019-04-26T15:23:32.985Z,41.60
2019-04-26T15:26:05.734Z,41.30
2019-04-26T15:28:43.697Z,41.30
2019-04-26T15:34:19.187Z,41.40
2019-04-26T15:36:57.425Z,41.30
2019-04-26T15:39:44.473Z,41.30
2019-04-26T15:42:36.191Z,41.90
2019-04-26T15:45:27.353Z,40.90
2019-04-26T15:48:27.715Z,40.90
2019-04-26T15:50:57.308Z,41.30
2019-04-26T15:53:33.129Z,41.10
2019-04-26T15:56:10.153Z,41.40
2019-04-26T15:58:49.124Z,41.70
2019-04-26T16:01:18.321Z,42.00
2019-04-26T16:03:57.127Z,42.20
2019-04-26T16:06:26.948Z,42.60
2019-04-26T16:09:13.873Z,42.50
2019-04-26T16:11:42.815Z,42.40
2019-04-26T16:14:12.310Z,42.60
2019-04-26T16:16:43.152Z,42.30
2019-04-26T16:19:13.077Z,42.50
2019-04-26T16:21:42.971Z,43.00
2019-04-26T16:24:12.932Z,43.10
2019-04-26T16:26:50.484Z,43.50
2019-04-26T16:29:26.792Z,43.50
2019-04-26T16:32:16.777Z,43.50
2019-04-26T16:34:47.556Z,43.70
2019-04-26T16:37:21.841Z,43.60
2019-04-26T16:39:49.558Z,45.00
2019-04-26T16:42:19.433Z,44.20
2019-04-26T16:44:48.939Z,44.50
2019-04-26T16:47:18.529Z,44.70
2019-04-26T16:49:48.090Z,45.30
2019-04-26T16:52:19.770Z,45.00
2019-04-26T16:54:49.604Z,45.20
2019-04-26T16:57:19.154Z,45.50
2019-04-26T16:59:54.367Z,45.80
2019-04-26T17:02:25.550Z,46.00
2019-04-26T17:04:54.948Z,45.80
2019-04-26T17:07:27.578Z,46.20
2019-04-26T17:09:59.438Z,47.00
2019-04-26T17:12:46.227Z,47.60
2019-04-26T17:15:24.469Z,48.00
2019-04-26T17:17:50.454Z,48.20
2019-04-26T17:20:23.604Z,48.90
2019-04-26T17:23:05.424Z,49.70
2019-04-26T17:26:15.167Z,49.90
2019-04-26T17:28:46.046Z,50.50
2019-04-26T17:31:19.314Z,51.00
2019-04-26T17:33:57.310Z,51.60
2019-04-26T17:36:22.732Z,51.60
2019-04-26T17:39:01.293Z,52.00
2019-04-26T17:41:45.014Z,52.70
2019-04-26T17:44:14.416Z,52.80
2019-04-26T17:46:43.611Z,53.10
2019-04-26T17:49:13.159Z,53.60
2019-04-26T17:51:44.463Z,54.50
2019-04-26T17:54:41.501Z,55.10
2019-04-26T17:56:45.632Z,55.50
2019-04-26T17:59:32.617Z,56.00
2019-04-26T18:01:57.292Z,56.30
2019-04-26T18:04:40.616Z,55.90
2019-04-26T18:07:34.612Z,56.70
2019-04-26T18:09:56.865Z,56.70
2019-04-26T18:12:47.317Z,57.80
2019-04-26T18:18:24.480Z,59.20
2019-04-26T18:21:20.324Z,59.50
2019-04-26T18:32:33.585Z,62.90
2019-04-26T18:35:33.796Z,64.00
2019-04-26T18:38:26.640Z,65.80
2019-04-26T18:41:01.400Z,67.40
2019-04-26T18:43:38.372Z,69.20
2019-04-26T18:46:18.200Z,70.00
2019-04-26T18:49:04.520Z,71.50
2019-04-26T18:51:43.392Z,72.00
2019-04-26T18:54:20.115Z,73.00
2019-04-26T18:57:00.925Z,74.00
2019-04-26T18:59:30.129Z,74.40
2019-04-26T19:01:59.782Z,75.60
2019-04-26T19:04:31.385Z,76.10
2019-04-26T19:07:04.697Z,77.40
2019-04-26T19:09:56.615Z,78.00
2019-04-26T19:12:14.086Z,78.50
2019-04-26T19:15:09.265Z,79.40
2019-04-26T19:18:25.241Z,79.90
2019-04-26T19:20:34.957Z,81.30
2019-04-26T19:23:09.423Z,81.50
2019-04-26T19:25:45.873Z,82.10
2019-04-26T19:28:25.878Z,82.50
2019-04-26T19:30:59.534Z,82.60
2019-04-26T19:33:35.859Z,82.30
2019-04-26T19:36:07.705Z,82.40
2019-04-26T19:39:03.634Z,82.20
2019-04-26T19:41:34.675Z,82.30
2019-04-26T19:44:09.480Z,83.00
2019-04-26T19:47:06.619Z,83.20
2019-04-26T19:50:09.590Z,83.60
2019-04-26T19:53:01.604Z,84.10
2019-04-26T19:55:51.460Z,84.20
2019-04-26T19:58:25.608Z,84.60
2019-04-26T20:00:57.734Z,84.70
2019-04-26T20:03:32.049Z,85.60
2019-04-26T20:06:07.075Z,85.60
2019-04-26T20:11:39.704Z,86.80
2019-04-26T20:14:12.370Z,87.00
2019-04-26T20:19:47.537Z,87.00
2019-04-26T20:22:27.685Z,87.40
2019-04-26T20:24:57.886Z,88.00
2019-04-26T20:27:32.213Z,88.30
2019-04-26T20:30:12.581Z,89.00
2019-04-26T20:32:44.690Z,89.30
2019-04-26T20:35:26.134Z,90.00
2019-04-26T20:38:02.910Z,90.30
2019-04-26T20:40:47.099Z,90.50
2019-04-26T20:43:27.330Z,90.80
2019-04-26T20:46:12.453Z,91.00
2019-04-26T20:48:42.636Z,91.30
2019-04-26T20:51:11.020Z,91.40
2019-04-26T20:53:43.953Z,91.80
2019-04-26T20:56:18.726Z,91.50
2019-04-26T20:58:48.723Z,91.40
2019-04-26T21:01:19.708Z,91.60
2019-04-26T21:03:54.200Z,91.70
2019-04-26T21:06:24.070Z,91.80
2019-04-26T21:14:37.729Z,92.20
2019-04-26T21:17:11.572Z,92.40
2019-04-26T21:19:43.301Z,92.40
2019-04-26T21:22:13.132Z,92.40
2019-04-26T21:24:45.072Z,92.60
2019-04-26T21:27:44.632Z,92.60
2019-04-26T21:36:05.847Z,92.70
2019-04-26T21:38:45.560Z,92.70
2019-04-26T21:41:25.594Z,92.80
2019-04-26T21:44:07.681Z,93.10
2019-04-26T21:46:36.335Z,93.50
2019-04-26T21:49:09.043Z,93.70
2019-04-26T21:51:39.953Z,93.70
2019-04-26T21:54:19.358Z,94.10
2019-04-26T21:56:53.633Z,94.10
2019-04-26T21:59:28.609Z,94.40
2019-04-26T22:03:16.064Z,94.50
2019-04-26T22:07:25.638Z,94.80
2019-04-26T22:10:14.421Z,94.90
2019-04-26T22:19:14.499Z,95.20
2019-04-26T22:25:33.247Z,95.70
2019-04-26T22:27:54.041Z,95.60
2019-04-26T22:30:29.406Z,95.70
2019-04-26T22:33:00.675Z,95.80
2019-04-26T22:35:33.608Z,95.90
2019-04-26T22:38:08.610Z,96.20
2019-04-26T22:41:36.745Z,96.10
2019-04-26T22:44:07.774Z,96.50
2019-04-26T22:46:54.334Z,96.80
2019-04-26T22:49:41.880Z,97.00
2019-04-26T22:52:23.582Z,97.30
2019-04-26T22:54:53.743Z,97.30
2019-04-26T22:57:23.508Z,97.40
2019-04-26T22:59:57.427Z,97.40
2019-04-26T23:02:27.869Z,97.30
2019-04-26T23:05:00.623Z,97.30
2019-04-26T23:07:28.926Z,97.30
2019-04-26T23:09:58.564Z,97.50
2019-04-26T23:15:23.979Z,98.10
2019-04-26T23:18:08.257Z,98.00
2019-04-26T23:20:47.617Z,97.90
2019-04-26T23:23:19.922Z,97.90
2019-04-26T23:25:49.676Z,98.10
2019-04-26T23:28:19.354Z,98.10
2019-04-26T23:30:50.401Z,98.30
2019-04-26T23:33:23.809Z,98.50
2019-04-26T23:35:59.123Z,98.80
2019-04-26T23:38:34.522Z,98.80
2019-04-26T23:47:00.675Z,99.10
2019-04-26T23:49:27.921Z,99.10
2019-04-26T23:52:03.673Z,99.20
2019-04-26T23:54:32.338Z,99.30
2019-04-26T23:57:05.049Z,99.40
2019-04-26T23:59:35.677Z,99.50
